sensor_id;sensor_type;location;lat;lon;timestamp;pressure;altitude;pressure_sealevel;temperature;humidity
42761;BME280;31672;47.638;19.026;2023-07-20T00:04:23;99391.00;;;23.17;67.58
42761;BME280;31672;47.638;19.026;2023-07-20T00:09:27;99391.56;;;23.04;67.86
42761;BME280;31672;47.638;19.026;2023-07-20T00:14:30;99385.81;;;22.90;68.79
42761;BME280;31672;47.638;19.026;2023-07-20T00:19:35;99379.78;;;22.73;68.90
42761;BME280;31672;47.638;19.026;2023-07-20T00:24:39;99368.69;;;22.69;68.83
42761;BME280;31672;47.638;19.026;2023-07-20T00:29:43;99366.25;;;22.62;68.24
42761;BME280;31672;47.638;19.026;2023-07-20T00:34:46;99363.56;;;22.67;68.56
42761;BME280;31672;47.638;19.026;2023-07-20T00:39:52;99370.03;;;22.66;68.57
42761;BME280;31672;47.638;19.026;2023-07-20T00:44:56;99371.66;;;22.57;68.78
42761;BME280;31672;47.638;19.026;2023-07-20T00:50:00;99370.50;;;22.43;69.30
42761;BME280;31672;47.638;19.026;2023-07-20T00:55:07;99374.81;;;22.34;69.73
42761;BME280;31672;47.638;19.026;2023-07-20T01:00:11;99363.69;;;22.25;70.16
42761;BME280;31672;47.638;19.026;2023-07-20T01:05:15;99358.50;;;22.13;70.55
42761;BME280;31672;47.638;19.026;2023-07-20T01:15:37;99348.88;;;21.90;71.83
42761;BME280;31672;47.638;19.026;2023-07-20T01:20:42;99350.72;;;21.80;72.18
42761;BME280;31672;47.638;19.026;2023-07-20T01:26:27;99341.19;;;21.67;72.61
42761;BME280;31672;47.638;19.026;2023-07-20T01:31:38;99342.50;;;21.64;72.38
42761;BME280;31672;47.638;19.026;2023-07-20T01:36:43;99359.53;;;21.65;72.47
42761;BME280;31672;47.638;19.026;2023-07-20T01:41:47;99345.19;;;21.64;72.87
42761;BME280;31672;47.638;19.026;2023-07-20T01:46:51;99349.00;;;21.63;72.57
42761;BME280;31672;47.638;19.026;2023-07-20T01:51:55;99363.03;;;21.60;73.09
42761;BME280;31672;47.638;19.026;2023-07-20T01:56:58;99350.81;;;21.53;73.19
42761;BME280;31672;47.638;19.026;2023-07-20T02:02:02;99344.28;;;21.44;72.39
42761;BME280;31672;47.638;19.026;2023-07-20T02:07:06;99365.03;;;21.38;71.36
42761;BME280;31672;47.638;19.026;2023-07-20T02:12:10;99381.22;;;21.33;70.74
42761;BME280;31672;47.638;19.026;2023-07-20T02:17:13;99391.47;;;21.31;70.99
42761;BME280;31672;47.638;19.026;2023-07-20T02:22:18;99403.34;;;21.30;71.09
42761;BME280;31672;47.638;19.026;2023-07-20T02:27:22;99399.31;;;21.32;70.98
42761;BME280;31672;47.638;19.026;2023-07-20T02:32:26;99410.38;;;21.31;70.89
42761;BME280;31672;47.638;19.026;2023-07-20T02:37:29;99424.97;;;21.30;71.18
42761;BME280;31672;47.638;19.026;2023-07-20T02:42:33;99405.94;;;21.20;71.55
42761;BME280;31672;47.638;19.026;2023-07-20T02:47:37;99403.50;;;21.18;71.73
42761;BME280;31672;47.638;19.026;2023-07-20T02:52:41;99401.88;;;21.17;71.89
42761;BME280;31672;47.638;19.026;2023-07-20T02:57:44;99398.84;;;21.14;71.75
42761;BME280;31672;47.638;19.026;2023-07-20T03:02:49;99399.94;;;21.13;71.03
42761;BME280;31672;47.638;19.026;2023-07-20T03:07:56;99412.66;;;21.17;70.99
42761;BME280;31672;47.638;19.026;2023-07-20T03:12:59;99424.28;;;21.18;70.50
42761;BME280;31672;47.638;19.026;2023-07-20T03:18:28;99411.81;;;21.11;70.78
42761;BME280;31672;47.638;19.026;2023-07-20T03:23:32;99427.53;;;21.20;70.78
42761;BME280;31672;47.638;19.026;2023-07-20T03:28:36;99426.19;;;21.22;72.06
42761;BME280;31672;47.638;19.026;2023-07-20T03:33:42;99431.09;;;21.25;72.95
42761;BME280;31672;47.638;19.026;2023-07-20T03:38:45;99436.34;;;21.32;73.11
42761;BME280;31672;47.638;19.026;2023-07-20T03:43:49;99445.09;;;21.44;73.22
42761;BME280;31672;47.638;19.026;2023-07-20T03:48:53;99445.19;;;21.54;73.76
42761;BME280;31672;47.638;19.026;2023-07-20T03:53:59;99442.75;;;21.58;74.26
42761;BME280;31672;47.638;19.026;2023-07-20T03:59:02;99435.19;;;21.55;74.63
42761;BME280;31672;47.638;19.026;2023-07-20T04:04:07;99448.75;;;21.65;73.85
42761;BME280;31672;47.638;19.026;2023-07-20T04:09:12;99442.84;;;21.68;73.64
42761;BME280;31672;47.638;19.026;2023-07-20T04:14:16;99446.66;;;21.72;72.13
42761;BME280;31672;47.638;19.026;2023-07-20T04:19:20;99432.56;;;21.70;71.89
42761;BME280;31672;47.638;19.026;2023-07-20T04:24:24;99422.56;;;21.71;73.93
42761;BME280;31672;47.638;19.026;2023-07-20T04:29:28;99415.25;;;21.66;75.26
42761;BME280;31672;47.638;19.026;2023-07-20T04:34:32;99430.41;;;21.67;75.63
42761;BME280;31672;47.638;19.026;2023-07-20T04:39:35;99437.72;;;21.67;76.10
42761;BME280;31672;47.638;19.026;2023-07-20T04:44:39;99428.50;;;21.68;76.90
42761;BME280;31672;47.638;19.026;2023-07-20T04:49:43;99429.66;;;21.77;76.92
42761;BME280;31672;47.638;19.026;2023-07-20T04:54:46;99430.25;;;21.89;74.48
42761;BME280;31672;47.638;19.026;2023-07-20T04:59:50;99431.78;;;22.12;67.39
42761;BME280;31672;47.638;19.026;2023-07-20T05:04:53;99431.09;;;22.37;63.06
42761;BME280;31672;47.638;19.026;2023-07-20T05:09:58;99437.97;;;22.60;61.06
42761;BME280;31672;47.638;19.026;2023-07-20T05:15:03;99429.38;;;22.73;59.14
42761;BME280;31672;47.638;19.026;2023-07-20T05:20:07;99435.13;;;22.87;57.90
42761;BME280;31672;47.638;19.026;2023-07-20T05:25:13;99428.66;;;22.98;58.08
42761;BME280;31672;47.638;19.026;2023-07-20T05:30:17;99437.59;;;23.09;58.03
42761;BME280;31672;47.638;19.026;2023-07-20T05:35:22;99446.84;;;23.23;57.49
42761;BME280;31672;47.638;19.026;2023-07-20T05:40:26;99448.22;;;23.36;56.81
42761;BME280;31672;47.638;19.026;2023-07-20T05:45:29;99455.28;;;23.47;54.71
42761;BME280;31672;47.638;19.026;2023-07-20T05:50:33;99461.25;;;23.54;54.67
42761;BME280;31672;47.638;19.026;2023-07-20T05:55:36;99461.53;;;23.58;54.39
42761;BME280;31672;47.638;19.026;2023-07-20T06:00:40;99454.47;;;23.67;55.39
42761;BME280;31672;47.638;19.026;2023-07-20T06:05:43;99454.22;;;23.79;55.00
42761;BME280;31672;47.638;19.026;2023-07-20T06:10:50;99465.59;;;23.91;55.18
42761;BME280;31672;47.638;19.026;2023-07-20T06:15:57;99476.69;;;24.04;56.01
42761;BME280;31672;47.638;19.026;2023-07-20T06:21:00;99478.59;;;24.14;56.22
42761;BME280;31672;47.638;19.026;2023-07-20T06:26:06;99481.53;;;24.28;54.07
42761;BME280;31672;47.638;19.026;2023-07-20T06:31:11;99471.25;;;24.35;53.01
42761;BME280;31672;47.638;19.026;2023-07-20T06:36:18;99486.41;;;24.46;52.50
42761;BME280;31672;47.638;19.026;2023-07-20T06:41:22;99481.50;;;24.53;51.20
42761;BME280;31672;47.638;19.026;2023-07-20T06:46:29;99489.34;;;24.60;51.07
42761;BME280;31672;47.638;19.026;2023-07-20T06:51:33;99501.84;;;24.66;50.78
42761;BME280;31672;47.638;19.026;2023-07-20T06:56:36;99499.34;;;24.75;50.62
42761;BME280;31672;47.638;19.026;2023-07-20T07:01:40;99504.22;;;24.83;48.83
42761;BME280;31672;47.638;19.026;2023-07-20T07:06:44;99502.25;;;24.89;49.66
42761;BME280;31672;47.638;19.026;2023-07-20T07:11:47;99510.91;;;25.01;48.38
42761;BME280;31672;47.638;19.026;2023-07-20T07:16:51;99503.81;;;25.15;48.85
42761;BME280;31672;47.638;19.026;2023-07-20T07:22:00;99499.97;;;25.21;47.95
42761;BME280;31672;47.638;19.026;2023-07-20T07:27:05;99505.63;;;25.25;48.36
42761;BME280;31672;47.638;19.026;2023-07-20T07:32:08;99493.34;;;25.38;48.55
42761;BME280;31672;47.638;19.026;2023-07-20T07:37:14;99491.84;;;25.55;47.33
42761;BME280;31672;47.638;19.026;2023-07-20T07:42:17;99490.09;;;25.70;47.57
42761;BME280;31672;47.638;19.026;2023-07-20T07:47:21;99489.91;;;25.61;45.17
42761;BME280;31672;47.638;19.026;2023-07-20T07:52:25;99500.38;;;25.44;45.20
42761;BME280;31672;47.638;19.026;2023-07-20T07:57:29;99499.81;;;25.42;46.32
42761;BME280;31672;47.638;19.026;2023-07-20T08:02:33;99501.75;;;25.36;46.81
42761;BME280;31672;47.638;19.026;2023-07-20T08:07:37;99506.41;;;25.30;46.74
42761;BME280;31672;47.638;19.026;2023-07-20T08:12:41;99515.44;;;25.26;47.21
42761;BME280;31672;47.638;19.026;2023-07-20T08:17:44;99518.47;;;25.19;47.55
42761;BME280;31672;47.638;19.026;2023-07-20T08:22:48;99515.50;;;25.11;45.63
42761;BME280;31672;47.638;19.026;2023-07-20T08:27:51;99514.72;;;25.00;46.54
42761;BME280;31672;47.638;19.026;2023-07-20T08:32:55;99510.66;;;24.97;46.99
42761;BME280;31672;47.638;19.026;2023-07-20T08:37:59;99518.28;;;24.95;47.34
42761;BME280;31672;47.638;19.026;2023-07-20T08:43:06;99529.66;;;25.02;47.15
42761;BME280;31672;47.638;19.026;2023-07-20T08:48:12;99524.19;;;25.13;47.29
42761;BME280;31672;47.638;19.026;2023-07-20T08:53:15;99535.06;;;25.13;44.96
42761;BME280;31672;47.638;19.026;2023-07-20T08:58:20;99541.91;;;25.05;43.66
42761;BME280;31672;47.638;19.026;2023-07-20T09:03:23;99549.53;;;24.98;44.51
42761;BME280;31672;47.638;19.026;2023-07-20T09:08:27;99565.84;;;24.93;44.12
42761;BME280;31672;47.638;19.026;2023-07-20T09:13:35;99574.28;;;24.86;45.52
42761;BME280;31672;47.638;19.026;2023-07-20T09:18:38;99572.66;;;24.85;45.62
42761;BME280;31672;47.638;19.026;2023-07-20T09:23:42;99571.56;;;24.86;45.62
42761;BME280;31672;47.638;19.026;2023-07-20T09:28:52;99586.78;;;24.92;44.91
42761;BME280;31672;47.638;19.026;2023-07-20T09:33:57;99571.25;;;24.98;44.91
42761;BME280;31672;47.638;19.026;2023-07-20T09:39:04;99569.06;;;25.10;45.28
42761;BME280;31672;47.638;19.026;2023-07-20T09:44:08;99566.84;;;25.22;45.37
42761;BME280;31672;47.638;19.026;2023-07-20T09:49:19;99559.97;;;25.35;44.78
42761;BME280;31672;47.638;19.026;2023-07-20T09:54:27;99546.78;;;25.57;44.43
42761;BME280;31672;47.638;19.026;2023-07-20T09:59:31;99551.88;;;25.74;43.74
42761;BME280;31672;47.638;19.026;2023-07-20T10:04:36;99556.41;;;25.84;43.25
42761;BME280;31672;47.638;19.026;2023-07-20T10:09:41;99558.84;;;25.85;42.47
42761;BME280;31672;47.638;19.026;2023-07-20T10:20:11;99535.78;;;26.36;41.63
42761;BME280;31672;47.638;19.026;2023-07-20T10:25:18;99549.28;;;26.99;40.27
42761;BME280;31672;47.638;19.026;2023-07-20T10:30:22;99553.56;;;27.48;38.56
42761;BME280;31672;47.638;19.026;2023-07-20T10:35:26;99552.00;;;27.80;37.25
42761;BME280;31672;47.638;19.026;2023-07-20T10:40:39;99559.19;;;28.08;36.77
42761;BME280;31672;47.638;19.026;2023-07-20T10:45:52;99567.34;;;28.27;37.12
42761;BME280;31672;47.638;19.026;2023-07-20T10:51:13;99569.44;;;28.49;36.90
42761;BME280;31672;47.638;19.026;2023-07-20T10:56:22;99567.81;;;28.75;37.17
42761;BME280;31672;47.638;19.026;2023-07-20T11:01:30;99557.78;;;28.85;36.23
42761;BME280;31672;47.638;19.026;2023-07-20T11:06:36;99551.13;;;29.04;36.89
42761;BME280;31672;47.638;19.026;2023-07-20T11:11:48;99546.13;;;29.20;35.09
42761;BME280;31672;47.638;19.026;2023-07-20T11:16:53;99553.41;;;29.25;34.39
42761;BME280;31672;47.638;19.026;2023-07-20T11:21:57;99558.41;;;29.23;32.95
42761;BME280;31672;47.638;19.026;2023-07-20T11:27:07;99538.06;;;29.15;34.11
42761;BME280;31672;47.638;19.026;2023-07-20T11:32:11;99539.03;;;29.19;33.88
42761;BME280;31672;47.638;19.026;2023-07-20T11:37:16;99534.75;;;29.41;34.63
42761;BME280;31672;47.638;19.026;2023-07-20T11:42:20;99536.34;;;29.55;33.94
42761;BME280;31672;47.638;19.026;2023-07-20T11:47:29;99561.88;;;29.65;31.18
42761;BME280;31672;47.638;19.026;2023-07-20T11:52:33;99546.03;;;29.62;31.48
42761;BME280;31672;47.638;19.026;2023-07-20T11:57:38;99550.41;;;29.63;32.73
42761;BME280;31672;47.638;19.026;2023-07-20T12:02:43;99533.72;;;29.73;32.60
42761;BME280;31672;47.638;19.026;2023-07-20T12:07:47;99542.56;;;29.92;30.91
42761;BME280;31672;47.638;19.026;2023-07-20T12:12:54;99548.22;;;29.73;30.65
42761;BME280;31672;47.638;19.026;2023-07-20T12:18:01;99534.75;;;29.77;30.95
42761;BME280;31672;47.638;19.026;2023-07-20T12:23:12;99533.72;;;29.95;31.29
42761;BME280;31672;47.638;19.026;2023-07-20T12:28:19;99539.78;;;30.06;30.15
42761;BME280;31672;47.638;19.026;2023-07-20T12:33:24;99536.59;;;29.90;30.56
42761;BME280;31672;47.638;19.026;2023-07-20T12:38:28;99533.09;;;29.98;30.91
42761;BME280;31672;47.638;19.026;2023-07-20T12:43:34;99523.00;;;30.30;30.49
42761;BME280;31672;47.638;19.026;2023-07-20T12:48:38;99528.25;;;30.49;28.99
42761;BME280;31672;47.638;19.026;2023-07-20T12:53:44;99525.56;;;30.04;27.73
42761;BME280;31672;47.638;19.026;2023-07-20T12:58:47;99534.22;;;29.97;28.19
42761;BME280;31672;47.638;19.026;2023-07-20T13:03:53;99516.13;;;30.41;28.13
42761;BME280;31672;47.638;19.026;2023-07-20T13:09:00;99528.22;;;30.71;28.56
42761;BME280;31672;47.638;19.026;2023-07-20T13:14:05;99528.94;;;30.23;28.69
42761;BME280;31672;47.638;19.026;2023-07-20T13:19:09;99524.53;;;30.14;29.50
42761;BME280;31672;47.638;19.026;2023-07-20T13:24:12;99516.66;;;30.21;29.42
42761;BME280;31672;47.638;19.026;2023-07-20T13:29:16;99504.53;;;30.44;29.69
42761;BME280;31672;47.638;19.026;2023-07-20T13:34:21;99502.25;;;30.86;29.05
42761;BME280;31672;47.638;19.026;2023-07-20T13:39:24;99510.88;;;31.19;28.73
42761;BME280;31672;47.638;19.026;2023-07-20T13:44:33;99508.50;;;31.43;27.63
42761;BME280;31672;47.638;19.026;2023-07-20T13:49:37;99522.72;;;31.37;27.21
42761;BME280;31672;47.638;19.026;2023-07-20T13:54:50;99496.69;;;31.34;27.90
42761;BME280;31672;47.638;19.026;2023-07-20T13:59:57;99499.63;;;31.38;27.45
42761;BME280;31672;47.638;19.026;2023-07-20T14:05:04;99510.09;;;31.36;27.87
42761;BME280;31672;47.638;19.026;2023-07-20T14:10:11;99506.78;;;30.99;27.95
42761;BME280;31672;47.638;19.026;2023-07-20T14:15:17;99509.03;;;30.80;28.25
42761;BME280;31672;47.638;19.026;2023-07-20T14:20:22;99516.69;;;30.60;29.51
42761;BME280;31672;47.638;19.026;2023-07-20T14:25:25;99512.13;;;30.16;29.55
42761;BME280;31672;47.638;19.026;2023-07-20T14:30:32;99514.69;;;29.90;30.08
42761;BME280;31672;47.638;19.026;2023-07-20T14:35:35;99515.91;;;30.29;30.53
42761;BME280;31672;47.638;19.026;2023-07-20T14:40:39;99513.19;;;30.37;30.47
42761;BME280;31672;47.638;19.026;2023-07-20T14:45:42;99521.31;;;30.11;30.00
42761;BME280;31672;47.638;19.026;2023-07-20T14:50:46;99498.94;;;29.96;30.63
42761;BME280;31672;47.638;19.026;2023-07-20T14:55:50;99507.38;;;30.30;30.64
42761;BME280;31672;47.638;19.026;2023-07-20T15:00:54;99507.03;;;30.32;30.35
42761;BME280;31672;47.638;19.026;2023-07-20T15:05:58;99506.97;;;30.54;29.99
42761;BME280;31672;47.638;19.026;2023-07-20T15:11:02;99506.03;;;31.07;28.62
42761;BME280;31672;47.638;19.026;2023-07-20T15:16:05;99494.75;;;31.52;28.62
42761;BME280;31672;47.638;19.026;2023-07-20T15:21:09;99501.50;;;31.89;27.15
42761;BME280;31672;47.638;19.026;2023-07-20T15:26:13;99504.38;;;32.02;26.99
42761;BME280;31672;47.638;19.026;2023-07-20T15:31:17;99502.50;;;32.32;26.69
42761;BME280;31672;47.638;19.026;2023-07-20T15:36:21;99509.00;;;32.36;26.03
42761;BME280;31672;47.638;19.026;2023-07-20T15:41:28;99499.25;;;32.47;26.11
42761;BME280;31672;47.638;19.026;2023-07-20T15:51:44;99517.94;;;32.62;25.24
42761;BME280;31672;47.638;19.026;2023-07-20T15:56:50;99518.63;;;32.50;25.39
42761;BME280;31672;47.638;19.026;2023-07-20T16:01:54;99522.00;;;32.56;26.23
42761;BME280;31672;47.638;19.026;2023-07-20T16:06:57;99513.56;;;32.61;26.07
42761;BME280;31672;47.638;19.026;2023-07-20T16:12:03;99518.25;;;32.14;26.03
42761;BME280;31672;47.638;19.026;2023-07-20T16:17:07;99514.13;;;31.64;26.68
42761;BME280;31672;47.638;19.026;2023-07-20T16:22:10;99511.66;;;31.02;27.70
42761;BME280;31672;47.638;19.026;2023-07-20T16:27:16;99510.13;;;30.39;29.00
42761;BME280;31672;47.638;19.026;2023-07-20T16:32:20;99532.47;;;30.01;29.04
42761;BME280;31672;47.638;19.026;2023-07-20T16:37:24;99531.06;;;29.81;29.94
42761;BME280;31672;47.638;19.026;2023-07-20T16:42:31;99534.50;;;29.65;30.28
42761;BME280;31672;47.638;19.026;2023-07-20T16:47:38;99537.69;;;29.30;30.87
42761;BME280;31672;47.638;19.026;2023-07-20T16:52:42;99539.19;;;29.00;31.62
42761;BME280;31672;47.638;19.026;2023-07-20T16:57:46;99548.69;;;28.89;32.30
42761;BME280;31672;47.638;19.026;2023-07-20T17:02:50;99537.75;;;28.75;32.39
42761;BME280;31672;47.638;19.026;2023-07-20T17:07:53;99540.50;;;28.62;33.20
42761;BME280;31672;47.638;19.026;2023-07-20T17:12:58;99534.41;;;28.37;33.31
42761;BME280;31672;47.638;19.026;2023-07-20T17:18:02;99545.00;;;28.06;33.74
42761;BME280;31672;47.638;19.026;2023-07-20T17:23:06;99538.94;;;27.77;34.95
42761;BME280;31672;47.638;19.026;2023-07-20T17:28:09;99555.69;;;27.51;35.44
42761;BME280;31672;47.638;19.026;2023-07-20T17:33:16;99556.56;;;27.28;36.04
42761;BME280;31672;47.638;19.026;2023-07-20T17:38:20;99572.91;;;27.09;36.58
42761;BME280;31672;47.638;19.026;2023-07-20T17:43:31;99579.41;;;26.89;37.09
42761;BME280;31672;47.638;19.026;2023-07-20T17:48:34;99580.38;;;26.74;37.85
42761;BME280;31672;47.638;19.026;2023-07-20T17:53:38;99577.81;;;26.59;38.31
42761;BME280;31672;47.638;19.026;2023-07-20T17:58:42;99581.50;;;26.44;38.68
42761;BME280;31672;47.638;19.026;2023-07-20T18:03:45;99578.34;;;26.27;39.29
42761;BME280;31672;47.638;19.026;2023-07-20T18:08:49;99572.25;;;26.11;39.91
42761;BME280;31672;47.638;19.026;2023-07-20T18:13:53;99576.66;;;26.02;40.45
42761;BME280;31672;47.638;19.026;2023-07-20T18:18:56;99578.41;;;25.93;40.64
42761;BME280;31672;47.638;19.026;2023-07-20T18:24:00;99591.81;;;25.79;40.78
42761;BME280;31672;47.638;19.026;2023-07-20T18:29:03;99592.41;;;25.66;42.11
42761;BME280;31672;47.638;19.026;2023-07-20T18:34:07;99596.88;;;25.46;42.66
42761;BME280;31672;47.638;19.026;2023-07-20T18:39:11;99606.50;;;25.28;43.05
42761;BME280;31672;47.638;19.026;2023-07-20T18:44:15;99614.72;;;25.03;42.77
42761;BME280;31672;47.638;19.026;2023-07-20T18:49:19;99611.25;;;24.77;43.42
42761;BME280;31672;47.638;19.026;2023-07-20T18:54:22;99614.31;;;24.60;43.50
42761;BME280;31672;47.638;19.026;2023-07-20T18:59:26;99624.13;;;24.36;44.07
42761;BME280;31672;47.638;19.026;2023-07-20T19:04:30;99631.94;;;24.22;44.40
42761;BME280;31672;47.638;19.026;2023-07-20T19:09:33;99635.75;;;24.06;45.06
42761;BME280;31672;47.638;19.026;2023-07-20T19:14:37;99654.19;;;23.93;44.93
42761;BME280;31672;47.638;19.026;2023-07-20T19:19:40;99657.97;;;23.82;45.01
42761;BME280;31672;47.638;19.026;2023-07-20T19:24:45;99671.78;;;23.75;44.89
42761;BME280;31672;47.638;19.026;2023-07-20T19:29:51;99674.72;;;23.64;44.86
42761;BME280;31672;47.638;19.026;2023-07-20T19:34:54;99681.16;;;23.53;44.97
42761;BME280;31672;47.638;19.026;2023-07-20T19:39:58;99683.03;;;23.42;44.97
42761;BME280;31672;47.638;19.026;2023-07-20T19:45:02;99690.59;;;23.35;45.29
42761;BME280;31672;47.638;19.026;2023-07-20T19:50:06;99690.56;;;23.30;45.10
42761;BME280;31672;47.638;19.026;2023-07-20T19:55:10;99694.31;;;23.23;45.10
42761;BME280;31672;47.638;19.026;2023-07-20T20:00:14;99706.78;;;23.24;45.74
42761;BME280;31672;47.638;19.026;2023-07-20T20:05:41;99710.56;;;23.18;45.85
42761;BME280;31672;47.638;19.026;2023-07-20T20:10:46;99705.88;;;23.09;46.69
42761;BME280;31672;47.638;19.026;2023-07-20T20:15:54;99716.41;;;23.00;47.75
42761;BME280;31672;47.638;19.026;2023-07-20T20:20:58;99714.03;;;22.77;48.66
42761;BME280;31672;47.638;19.026;2023-07-20T20:26:02;99719.31;;;22.56;49.53
42761;BME280;31672;47.638;19.026;2023-07-20T20:31:06;99707.72;;;22.34;49.84
42761;BME280;31672;47.638;19.026;2023-07-20T20:36:10;99710.28;;;22.18;50.32
42761;BME280;31672;47.638;19.026;2023-07-20T20:41:13;99711.69;;;21.99;50.59
42761;BME280;31672;47.638;19.026;2023-07-20T20:46:17;99712.78;;;21.76;50.85
42761;BME280;31672;47.638;19.026;2023-07-20T20:51:24;99714.25;;;21.62;51.69
42761;BME280;31672;47.638;19.026;2023-07-20T20:56:27;99714.38;;;21.50;51.89
42761;BME280;31672;47.638;19.026;2023-07-20T21:01:34;99714.75;;;21.37;52.54
42761;BME280;31672;47.638;19.026;2023-07-20T21:06:38;99727.53;;;21.25;52.99
42761;BME280;31672;47.638;19.026;2023-07-20T21:11:41;99711.09;;;21.09;54.11
42761;BME280;31672;47.638;19.026;2023-07-20T21:16:45;99719.88;;;21.00;54.75
42761;BME280;31672;47.638;19.026;2023-07-20T21:21:49;99716.75;;;20.91;54.29
42761;BME280;31672;47.638;19.026;2023-07-20T21:26:52;99719.06;;;20.82;54.67
42761;BME280;31672;47.638;19.026;2023-07-20T21:31:56;99722.16;;;20.74;54.57
42761;BME280;31672;47.638;19.026;2023-07-20T21:36:59;99719.16;;;20.71;54.35
42761;BME280;31672;47.638;19.026;2023-07-20T21:42:03;99730.78;;;20.71;54.11
42761;BME280;31672;47.638;19.026;2023-07-20T21:47:07;99729.06;;;20.65;54.36
42761;BME280;31672;47.638;19.026;2023-07-20T21:52:11;99728.06;;;20.54;54.67
42761;BME280;31672;47.638;19.026;2023-07-20T21:57:14;99732.81;;;20.47;54.88
42761;BME280;31672;47.638;19.026;2023-07-20T22:02:18;99731.06;;;20.41;55.95
42761;BME280;31672;47.638;19.026;2023-07-20T22:07:22;99731.28;;;20.23;55.74
42761;BME280;31672;47.638;19.026;2023-07-20T22:12:25;99743.50;;;20.14;55.72
42761;BME280;31672;47.638;19.026;2023-07-20T22:17:29;99731.94;;;20.01;56.10
42761;BME280;31672;47.638;19.026;2023-07-20T22:22:33;99748.50;;;19.93;55.72
42761;BME280;31672;47.638;19.026;2023-07-20T22:27:37;99741.63;;;19.86;56.14
42761;BME280;31672;47.638;19.026;2023-07-20T22:32:42;99749.94;;;19.84;57.26
42761;BME280;31672;47.638;19.026;2023-07-20T22:37:47;99748.31;;;19.83;58.49
42761;BME280;31672;47.638;19.026;2023-07-20T22:42:52;99753.59;;;19.78;58.22
42761;BME280;31672;47.638;19.026;2023-07-20T22:47:56;99750.09;;;19.66;58.90
42761;BME280;31672;47.638;19.026;2023-07-20T22:53:00;99752.47;;;19.62;58.01
42761;BME280;31672;47.638;19.026;2023-07-20T22:58:03;99761.84;;;19.60;56.05
42761;BME280;31672;47.638;19.026;2023-07-20T23:03:07;99766.16;;;19.61;55.77
42761;BME280;31672;47.638;19.026;2023-07-20T23:08:10;99766.06;;;19.56;55.06
42761;BME280;31672;47.638;19.026;2023-07-20T23:13:14;99763.38;;;19.44;55.34
42761;BME280;31672;47.638;19.026;2023-07-20T23:18:17;99762.91;;;19.35;55.47
42761;BME280;31672;47.638;19.026;2023-07-20T23:23:21;99758.94;;;19.26;56.36
42761;BME280;31672;47.638;19.026;2023-07-20T23:28:25;99752.13;;;19.12;56.78
42761;BME280;31672;47.638;19.026;2023-07-20T23:33:29;99765.59;;;19.12;56.43
42761;BME280;31672;47.638;19.026;2023-07-20T23:38:37;99764.91;;;19.05;56.47
42761;BME280;31672;47.638;19.026;2023-07-20T23:43:42;99772.97;;;19.05;56.94
42761;BME280;31672;47.638;19.026;2023-07-20T23:48:46;99772.03;;;18.99;57.47
42761;BME280;31672;47.638;19.026;2023-07-20T23:53:50;99758.44;;;18.94;58.13
42761;BME280;31672;47.638;19.026;2023-07-20T23:58:54;99768.63;;;18.80;59.17
